createdAt,value
2022-10-15T00:02:27.515Z,23.53
2022-10-15T00:05:30.630Z,22.57
2022-10-15T00:08:34.001Z,23.40
2022-10-15T00:11:39.785Z,24.00
2022-10-15T00:14:42.802Z,23.27
2022-10-15T00:17:45.780Z,22.53
2022-10-15T00:20:48.723Z,24.20
2022-10-15T00:23:51.717Z,23.27
2022-10-15T00:26:55.995Z,23.23
2022-10-15T00:30:00.183Z,24.80
2022-10-15T00:33:03.176Z,24.77
2022-10-15T00:36:09.088Z,25.53
2022-10-15T00:39:12.097Z,25.30
2022-10-15T00:42:17.164Z,24.90
2022-10-15T00:45:20.596Z,25.50
2022-10-15T00:48:23.879Z,25.30
2022-10-15T00:51:33.139Z,24.80
2022-10-15T00:54:41.158Z,24.40
2022-10-15T00:57:48.406Z,24.87
2022-10-15T01:00:51.841Z,23.40
2022-10-15T01:03:56.683Z,23.80
2022-10-15T01:06:59.707Z,24.10
2022-10-15T01:10:03.597Z,23.00
2022-10-15T01:13:16.470Z,23.10
2022-10-15T01:16:24.323Z,29.03
2022-10-15T01:19:52.324Z,24.50
2022-10-15T01:23:23.654Z,24.50
2022-10-15T01:27:16.532Z,25.27
2022-10-15T01:30:24.924Z,27.30
2022-10-15T01:33:38.154Z,24.13
2022-10-15T01:36:51.084Z,24.37
2022-10-15T01:40:00.149Z,25.43
2022-10-15T01:43:07.675Z,24.47
2022-10-15T01:46:48.272Z,23.87
2022-10-15T01:50:00.547Z,23.97
2022-10-15T01:53:06.730Z,25.37
2022-10-15T01:56:14.182Z,26.47
2022-10-15T01:59:22.095Z,25.43
2022-10-15T02:02:26.906Z,24.73
2022-10-15T02:05:36.474Z,24.40
2022-10-15T02:08:46.034Z,23.73
2022-10-15T02:12:02.053Z,23.10
2022-10-15T02:15:12.497Z,24.60
2022-10-15T02:18:22.504Z,25.10
2022-10-15T02:21:32.895Z,25.20
2022-10-15T02:24:40.539Z,24.90
2022-10-15T02:27:46.961Z,24.83
2022-10-15T02:30:53.702Z,25.70
2022-10-15T02:34:02.599Z,23.20
2022-10-15T02:37:08.094Z,25.13
2022-10-15T02:40:12.119Z,23.20
2022-10-15T02:43:17.780Z,23.67
2022-10-15T02:46:21.856Z,23.30
2022-10-15T02:49:26.271Z,23.40
2022-10-15T02:52:29.367Z,24.17
2022-10-15T02:55:32.642Z,22.50
2022-10-15T02:58:35.787Z,24.23
2022-10-15T03:01:38.907Z,22.27
2022-10-15T03:04:43.871Z,22.53
2022-10-15T03:07:47.891Z,24.53
2022-10-15T03:10:51.333Z,24.37
2022-10-15T03:13:54.424Z,22.53
2022-10-15T03:16:57.946Z,23.23
2022-10-15T03:20:03.262Z,23.07
2022-10-15T03:23:08.612Z,21.77
2022-10-15T03:26:11.701Z,24.00
2022-10-15T03:29:14.930Z,23.20
2022-10-15T03:32:23.463Z,22.40
2022-10-15T03:35:27.871Z,23.20
2022-10-15T03:38:31.606Z,23.43
2022-10-15T03:41:35.093Z,23.10
2022-10-15T03:44:38.479Z,22.83
2022-10-15T03:47:46.204Z,24.23
2022-10-15T03:50:50.532Z,24.33
2022-10-15T03:53:54.227Z,21.80
2022-10-15T03:56:57.603Z,22.33
2022-10-15T04:00:09.443Z,21.93
2022-10-15T04:03:15.793Z,22.40
2022-10-15T04:06:20.535Z,22.57
2022-10-15T04:09:24.260Z,22.27
2022-10-15T04:12:27.538Z,22.40
2022-10-15T04:15:30.764Z,24.40
2022-10-15T04:18:39.165Z,24.20
2022-10-15T04:21:43.728Z,23.93
2022-10-15T04:25:00.151Z,23.77
2022-10-15T04:28:05.238Z,23.87
2022-10-15T04:31:17.826Z,27.47
2022-10-15T04:34:20.818Z,24.77
2022-10-15T04:37:26.311Z,26.73
2022-10-15T04:40:30.072Z,25.87
2022-10-15T04:43:34.545Z,25.93
2022-10-15T04:46:41.895Z,28.47
2022-10-15T04:50:20.153Z,29.27
2022-10-15T04:53:47.743Z,26.50
2022-10-15T04:56:51.464Z,27.20
2022-10-15T04:59:57.621Z,23.37
2022-10-15T05:03:21.024Z,23.70
2022-10-15T05:06:34.884Z,24.07
2022-10-15T05:09:52.805Z,23.70
2022-10-15T05:12:56.939Z,26.03
2022-10-15T05:16:13.831Z,24.53
2022-10-15T05:19:17.821Z,23.30
2022-10-15T05:22:21.333Z,22.70
2022-10-15T05:25:30.616Z,20.77
2022-10-15T05:28:34.009Z,21.90
2022-10-15T05:31:39.270Z,22.63
2022-10-15T05:34:55.166Z,21.23
2022-10-15T05:37:58.308Z,20.30
2022-10-15T05:41:02.561Z,20.57
2022-10-15T05:44:06.216Z,21.87
2022-10-15T05:47:11.962Z,21.93
2022-10-15T05:50:16.670Z,23.07
2022-10-15T05:53:23.262Z,20.20
2022-10-15T05:56:31.980Z,21.67
2022-10-15T05:59:35.001Z,21.17
2022-10-15T06:02:38.076Z,20.30
2022-10-15T06:05:41.136Z,19.03
2022-10-15T06:08:44.271Z,19.67
2022-10-15T06:11:48.722Z,21.10
2022-10-15T06:14:54.556Z,20.43
2022-10-15T06:17:57.548Z,22.23
2022-10-15T06:21:00.569Z,18.90
2022-10-15T06:24:06.316Z,20.40
2022-10-15T06:27:13.903Z,21.63
2022-10-15T06:30:17.096Z,20.43
2022-10-15T06:33:20.031Z,20.10
2022-10-15T06:36:24.246Z,19.03
2022-10-15T06:39:27.614Z,21.80
2022-10-15T06:42:31.876Z,21.00
2022-10-15T06:45:36.502Z,20.80
2022-10-15T06:48:42.423Z,22.03
2022-10-15T06:51:45.367Z,18.60
2022-10-15T06:54:48.293Z,21.73
2022-10-15T06:57:52.821Z,22.13
2022-10-15T07:01:03.471Z,20.37
2022-10-15T07:04:06.488Z,20.10
2022-10-15T07:07:09.472Z,23.37
2022-10-15T07:10:12.438Z,18.37
2022-10-15T07:13:18.619Z,19.53
2022-10-15T07:16:21.727Z,19.37
2022-10-15T07:19:24.707Z,17.60
2022-10-15T07:22:28.007Z,18.57
2022-10-15T07:25:31.339Z,17.67
2022-10-15T07:28:35.721Z,19.27
2022-10-15T07:31:38.679Z,17.63
2022-10-15T07:34:41.731Z,16.97
2022-10-15T07:37:44.808Z,19.40
2022-10-15T07:40:47.766Z,17.80
2022-10-15T07:43:53.142Z,19.43
2022-10-15T07:46:56.070Z,17.27
2022-10-15T07:49:59.262Z,16.77
2022-10-15T07:53:02.290Z,20.15
2022-10-15T07:56:08.743Z,20.23
2022-10-15T07:59:13.183Z,20.23
2022-10-15T08:02:17.611Z,15.67
2022-10-15T08:05:20.544Z,16.50
2022-10-15T08:08:23.693Z,15.13
2022-10-15T08:11:26.691Z,16.55
2022-10-15T08:14:31.206Z,15.57
2022-10-15T08:17:34.122Z,15.48
2022-10-15T08:20:37.430Z,14.98
2022-10-15T08:23:41.457Z,14.38
2022-10-15T08:26:44.775Z,14.63
2022-10-15T08:29:49.007Z,14.07
2022-10-15T08:32:52.078Z,14.55
2022-10-15T08:35:55.153Z,16.52
2022-10-15T08:38:58.601Z,13.75
2022-10-15T08:42:04.655Z,12.48
2022-10-15T08:45:17.125Z,12.35
2022-10-15T08:48:28.880Z,11.80
2022-10-15T08:51:43.110Z,13.63
2022-10-15T08:54:46.170Z,12.15
2022-10-15T08:57:55.232Z,12.68
2022-10-15T09:01:03.029Z,12.10
2022-10-15T09:04:19.777Z,12.80
2022-10-15T09:07:32.759Z,12.90
2022-10-15T09:10:45.315Z,12.50
2022-10-15T09:13:52.550Z,11.30
2022-10-15T09:17:07.648Z,11.63
2022-10-15T09:20:19.986Z,10.27
2022-10-15T09:23:30.727Z,11.95
2022-10-15T09:26:51.506Z,12.27
2022-10-15T09:30:05.270Z,10.68
2022-10-15T09:33:17.845Z,10.90
2022-10-15T09:36:36.666Z,10.52
2022-10-15T09:40:04.927Z,10.27
2022-10-15T09:43:12.105Z,10.27
2022-10-15T09:46:15.218Z,12.23
2022-10-15T09:49:25.696Z,10.32
2022-10-15T09:53:04.017Z,13.55
2022-10-15T09:56:14.695Z,14.07
2022-10-15T09:59:20.832Z,13.18
2022-10-15T10:02:26.878Z,12.65
2022-10-15T10:05:35.886Z,11.93
2022-10-15T10:08:57.130Z,10.68
2022-10-15T10:12:14.325Z,11.70
2022-10-15T10:15:40.028Z,11.63
2022-10-15T10:18:50.368Z,10.82
2022-10-15T10:22:13.122Z,11.77
2022-10-15T10:25:33.456Z,10.38
2022-10-15T10:28:44.202Z,9.20
2022-10-15T10:31:51.671Z,9.43
2022-10-15T10:35:21.347Z,8.38
2022-10-15T10:38:28.801Z,8.13
2022-10-15T10:41:52.973Z,7.40
2022-10-15T10:44:56.101Z,7.38
2022-10-15T10:48:00.564Z,7.75
2022-10-15T10:51:09.335Z,7.35
2022-10-15T10:54:24.507Z,7.15
2022-10-15T10:57:51.168Z,7.55
2022-10-15T11:00:59.091Z,8.27
2022-10-15T11:07:23.898Z,7.30
2022-10-15T11:10:37.412Z,6.97
2022-10-15T11:13:55.260Z,7.85
2022-10-15T11:17:05.823Z,8.02
2022-10-15T11:20:51.033Z,8.27
2022-10-15T11:24:04.929Z,6.38
2022-10-15T11:27:36.507Z,7.22
2022-10-15T11:30:51.452Z,8.20
2022-10-15T11:34:15.510Z,7.88
2022-10-15T11:37:37.925Z,6.82
2022-10-15T11:40:54.604Z,8.52
2022-10-15T11:44:26.649Z,6.53
2022-10-15T11:47:45.527Z,6.13
2022-10-15T11:50:53.481Z,5.93
2022-10-15T11:54:23.058Z,6.20
2022-10-15T11:57:27.687Z,5.28
2022-10-15T12:00:37.952Z,6.20
2022-10-15T12:03:50.810Z,4.75
2022-10-15T12:06:58.261Z,5.10
2022-10-15T12:10:15.036Z,5.25
2022-10-15T12:13:27.632Z,5.65
2022-10-15T12:16:43.001Z,5.43
2022-10-15T12:19:52.214Z,5.15
2022-10-15T12:22:58.973Z,6.85
2022-10-15T12:26:02.035Z,4.80
2022-10-15T12:29:18.352Z,5.18
2022-10-15T12:32:26.148Z,5.10
2022-10-15T12:35:36.459Z,4.63
2022-10-15T12:38:42.421Z,5.90
2022-10-15T12:41:51.043Z,4.38
2022-10-15T12:44:54.646Z,5.75
2022-10-15T12:48:21.407Z,4.75
2022-10-15T12:51:33.328Z,6.05
2022-10-15T12:54:41.790Z,5.20
2022-10-15T12:58:04.192Z,5.05
2022-10-15T13:01:21.184Z,5.22
2022-10-15T13:04:38.834Z,5.70
2022-10-15T13:07:48.206Z,5.30
2022-10-15T13:10:56.020Z,5.63
2022-10-15T13:14:02.895Z,4.80
2022-10-15T13:17:15.492Z,3.97
2022-10-15T13:20:33.677Z,5.60
2022-10-15T13:23:37.211Z,4.43
2022-10-15T13:26:40.183Z,4.20
2022-10-15T13:29:56.005Z,5.07
2022-10-15T13:32:58.971Z,3.80
2022-10-15T13:36:09.200Z,5.13
2022-10-15T13:42:59.120Z,4.20
2022-10-15T13:46:03.106Z,4.20
2022-10-15T13:49:13.792Z,4.95
2022-10-15T13:52:18.455Z,4.55
2022-10-15T13:55:25.791Z,3.97
2022-10-15T13:58:30.840Z,4.13
2022-10-15T14:01:36.174Z,8.32
2022-10-15T14:04:40.953Z,7.40
2022-10-15T14:07:55.437Z,4.20
2022-10-15T14:11:00.462Z,4.80
2022-10-15T14:14:03.796Z,3.58
2022-10-15T14:17:09.347Z,4.30
2022-10-15T14:20:27.226Z,3.78
2022-10-15T14:23:32.969Z,3.25
2022-10-15T14:26:36.385Z,4.90
2022-10-15T14:29:43.089Z,3.70
2022-10-15T14:32:47.922Z,4.22
2022-10-15T14:36:06.350Z,5.70
2022-10-15T14:39:31.219Z,5.10
2022-10-15T14:42:35.968Z,8.00
2022-10-15T14:45:44.702Z,12.27
2022-10-15T14:48:48.421Z,15.85
2022-10-15T14:52:04.527Z,8.32
2022-10-15T14:55:21.124Z,8.40
2022-10-15T14:58:29.756Z,7.47
2022-10-15T15:01:36.393Z,8.43
2022-10-15T15:04:46.820Z,4.35
2022-10-15T15:07:53.883Z,4.13
2022-10-15T15:11:04.082Z,6.05
2022-10-15T15:14:24.371Z,4.10
2022-10-15T15:17:30.402Z,5.07
2022-10-15T15:20:33.415Z,5.75
2022-10-15T15:23:37.141Z,7.25
2022-10-15T15:26:42.557Z,4.95
2022-10-15T15:29:48.353Z,4.28
2022-10-15T15:32:53.344Z,4.30
2022-10-15T15:36:01.783Z,3.13
2022-10-15T15:39:05.239Z,4.03
2022-10-15T15:42:13.650Z,4.03
2022-10-15T15:45:22.130Z,4.60
2022-10-15T15:48:33.428Z,4.32
2022-10-15T15:51:37.071Z,4.20
2022-10-15T15:54:45.553Z,4.45
2022-10-15T15:57:56.227Z,4.55
2022-10-15T16:01:04.686Z,4.28
2022-10-15T16:04:08.124Z,4.22
2022-10-15T16:07:13.559Z,4.90
2022-10-15T16:10:19.758Z,4.50
2022-10-15T16:13:32.174Z,4.60
2022-10-15T16:16:38.791Z,4.25
2022-10-15T16:19:42.210Z,5.45
2022-10-15T16:22:49.967Z,5.63
2022-10-15T16:26:01.988Z,5.93
2022-10-15T16:29:09.124Z,5.72
2022-10-15T16:32:15.342Z,4.65
2022-10-15T16:35:26.787Z,5.15
2022-10-15T16:38:35.915Z,5.85
2022-10-15T16:41:43.546Z,6.68
2022-10-15T16:44:47.905Z,6.22
2022-10-15T16:47:53.820Z,7.30
2022-10-15T16:51:01.107Z,7.82
2022-10-15T16:54:04.560Z,11.38
2022-10-15T16:57:10.175Z,9.18
2022-10-15T17:00:20.143Z,11.63
2022-10-15T17:03:23.185Z,12.00
2022-10-15T17:06:29.998Z,12.55
2022-10-15T17:09:33.359Z,13.35
2022-10-15T17:12:36.417Z,12.82
2022-10-15T17:15:55.875Z,12.75
2022-10-15T17:19:07.263Z,13.27
2022-10-15T17:22:10.562Z,13.35
2022-10-15T17:25:21.115Z,12.82
2022-10-15T17:28:29.460Z,14.60
2022-10-15T17:31:34.314Z,13.60
2022-10-15T17:34:37.533Z,14.43
2022-10-15T17:37:40.936Z,15.53
2022-10-15T17:40:44.035Z,15.73
2022-10-15T17:43:48.052Z,15.32
2022-10-15T17:46:53.119Z,16.40
2022-10-15T17:50:03.924Z,15.13
2022-10-15T17:53:07.502Z,15.80
2022-10-15T17:56:12.933Z,16.33
2022-10-15T17:59:15.954Z,17.05
2022-10-15T18:02:20.437Z,15.88
2022-10-15T18:05:24.306Z,15.95
2022-10-15T18:08:27.393Z,15.25
2022-10-15T18:11:34.570Z,15.73
2022-10-15T18:14:37.702Z,16.10
2022-10-15T18:17:42.002Z,15.17
2022-10-15T18:20:46.660Z,15.30
2022-10-15T18:23:49.667Z,14.70
2022-10-15T18:26:53.370Z,14.00
2022-10-15T18:29:56.394Z,12.87
2022-10-15T18:33:01.165Z,12.50
2022-10-15T18:36:08.866Z,14.47
2022-10-15T18:39:12.054Z,15.33
2022-10-15T18:42:15.010Z,14.70
2022-10-15T18:45:18.072Z,11.87
2022-10-15T18:48:22.310Z,12.97
2022-10-15T18:51:26.063Z,12.03
2022-10-15T18:54:31.310Z,11.00
2022-10-15T18:57:34.764Z,12.10
2022-10-15T19:00:37.809Z,13.00
2022-10-15T19:03:42.207Z,9.87
2022-10-15T19:06:50.079Z,10.20
2022-10-15T19:09:53.038Z,9.27
2022-10-15T19:13:02.565Z,10.20
2022-10-15T19:16:08.721Z,11.43
2022-10-15T19:19:16.253Z,10.88
2022-10-15T19:22:25.339Z,15.80
2022-10-15T19:25:28.435Z,16.10
2022-10-15T19:28:31.435Z,14.37
2022-10-15T19:31:37.723Z,13.93
2022-10-15T19:34:42.172Z,8.63
2022-10-15T19:37:45.335Z,8.47
2022-10-15T19:40:52.281Z,8.85
2022-10-15T19:43:55.310Z,9.00
2022-10-15T19:46:58.485Z,9.17
2022-10-15T19:50:03.062Z,9.93
2022-10-15T19:53:06.848Z,9.30
2022-10-15T19:56:12.075Z,9.17
2022-10-15T19:59:16.767Z,8.73
2022-10-15T20:02:19.785Z,8.43
2022-10-15T20:05:24.094Z,9.65
2022-10-15T20:08:27.326Z,9.48
2022-10-15T20:11:30.622Z,9.63
2022-10-15T20:14:33.691Z,10.48
2022-10-15T20:17:36.853Z,8.65
2022-10-15T20:20:45.368Z,9.93
2022-10-15T20:23:48.676Z,8.87
2022-10-15T20:26:52.225Z,10.65
2022-10-15T20:29:55.426Z,8.73
2022-10-15T20:32:58.694Z,11.07
2022-10-15T20:36:08.918Z,7.10
2022-10-15T20:39:12.145Z,10.07
2022-10-15T20:42:15.124Z,9.88
2022-10-15T20:45:18.236Z,11.10
2022-10-15T20:48:24.356Z,9.00
2022-10-15T20:51:28.947Z,7.53
2022-10-15T20:54:32.345Z,9.95
2022-10-15T20:57:36.572Z,13.90
2022-10-15T21:00:42.952Z,10.07
2022-10-15T21:03:55.842Z,9.03
2022-10-15T21:07:01.817Z,12.83
2022-10-15T21:10:06.091Z,9.30
2022-10-15T21:13:18.421Z,9.67
2022-10-15T21:16:24.580Z,9.00
2022-10-15T21:19:30.775Z,9.53
2022-10-15T21:22:35.269Z,8.80
2022-10-15T21:28:46.536Z,9.13
2022-10-15T21:31:52.501Z,9.03
2022-10-15T21:34:55.445Z,10.03
2022-10-15T21:38:02.032Z,12.53
2022-10-15T21:41:05.310Z,10.97
2022-10-15T21:44:09.204Z,10.13
2022-10-15T21:47:15.133Z,9.63
2022-10-15T21:50:18.845Z,9.23
2022-10-15T21:53:23.524Z,8.73
2022-10-15T21:56:28.332Z,7.07
2022-10-15T21:59:31.434Z,7.47
2022-10-15T22:02:34.602Z,8.07
2022-10-15T22:05:37.712Z,7.23
2022-10-15T22:08:42.769Z,8.87
2022-10-15T22:11:45.902Z,6.47
2022-10-15T22:14:48.984Z,7.60
2022-10-15T22:17:51.919Z,7.90
2022-10-15T22:20:54.977Z,8.03
2022-10-15T22:24:02.414Z,8.27
2022-10-15T22:27:05.430Z,8.50
2022-10-15T22:30:10.267Z,10.00
2022-10-15T22:33:13.425Z,8.50
2022-10-15T22:36:19.640Z,8.67
2022-10-15T22:39:24.020Z,8.37
2022-10-15T22:42:27.524Z,8.83
2022-10-15T22:45:31.571Z,10.63
2022-10-15T22:48:35.155Z,8.27
2022-10-15T22:51:40.606Z,9.23
2022-10-15T22:54:45.113Z,8.80
2022-10-15T22:57:48.553Z,8.43
2022-10-15T23:00:51.834Z,10.03
2022-10-15T23:03:57.441Z,8.70
2022-10-15T23:07:00.686Z,7.83
2022-10-15T23:10:05.717Z,7.77
2022-10-15T23:13:09.325Z,7.53
2022-10-15T23:16:15.873Z,7.30
2022-10-15T23:19:21.706Z,7.57
2022-10-15T23:22:25.276Z,7.30
2022-10-15T23:25:29.998Z,8.00
2022-10-15T23:28:33.096Z,7.90
2022-10-15T23:31:37.226Z,7.27
2022-10-15T23:34:40.769Z,7.43
2022-10-15T23:37:46.590Z,8.73
2022-10-15T23:40:51.901Z,10.07
2022-10-15T23:43:55.519Z,8.40
2022-10-15T23:46:58.523Z,9.20
2022-10-15T23:50:01.571Z,7.53
2022-10-15T23:53:04.831Z,8.03
2022-10-15T23:56:09.489Z,7.10
2022-10-15T23:59:12.937Z,8.27
